clima

HORA PREDICCIÓN TEMPERATURA VIENTO HUMEDAD
2022-01-21 04:00:00 Nublado 21 3.7 0.83
2022-01-21 05:00:00 Nublado 20 3.35 0.82
2022-01-21 06:00:00 Nublado 20 3.19 0.81
2022-01-21 07:00:00 Nublado 21 2.98 0.79
2022-01-21 08:00:00 Nublado 21 2.72 0.77
2022-01-21 09:00:00 Nublado 21 2.49 0.75
2022-01-21 10:00:00 Nublado 22 3.67 0.71
2022-01-21 11:00:00 Nublado 22 5.33 0.68
2022-01-21 12:00:00 Nublado 23 6.54 0.66
2022-01-21 13:00:00 Mayormente nublado 24 7.47 0.63
2022-01-21 14:00:00 Mayormente nublado 24 8.25 0.61
2022-01-21 15:00:00 Nublado 25 9.81 0.59
2022-01-21 16:00:00 Nublado 24 9.99 0.58
2022-01-21 17:00:00 Mayormente nublado 24 9.17 0.58
2022-01-21 18:00:00 Mayormente nublado 24 8.24 0.6
2022-01-21 19:00:00 Mayormente nublado 24 7.33 0.62
2022-01-21 20:00:00 Mayormente nublado 23 6.26 0.67
2022-01-21 21:00:00 Mayormente nublado 22 4.85 0.71
2022-01-21 22:00:00 Mayormente nublado 22 4 0.74
2022-01-21 23:00:00 Nublado 22 3.39 0.77

Mesón de informaciones

(56 65) 229 4161

Horario

24 horas del día.

Edificio Terminal de pasajeros,

Aeropuerto El Tepual Puerto Montt

Región de los Lagos, Chile.